Time;durP1;ratioP1;P1;durP2;ratioP2;P2;SDS_P1;SDS_P2;PMS_P1;PMS_P2;Temp;Humidity;BMP_temperature;BMP_pressure;BME280_temperature;BME280_humidity;BME280_pressure;Samples;Min_cycle;Max_cycle;Signal;HPM_P1;HPM_P2
2024/02/15 00:02:16;;;;;;;0.80;0.50;;;;;;;2.94;100.00;102206.95;104962;1256;60828;-55
2024/02/15 00:04:43;;;;;;;1.30;0.60;;;;;;;2.97;100.00;102214.11;105205;1254;60673;-53
2024/02/15 00:07:11;;;;;;;0.80;0.50;;;;;;;2.98;100.00;102221.58;105336;1256;73879;-52
2024/02/15 00:09:39;;;;;;;2.00;0.60;;;;;;;2.97;100.00;102222.45;105001;1253;68106;-54
2024/02/15 00:12:07;;;;;;;1.00;0.60;;;;;;;2.98;100.00;102222.64;105142;1258;72749;-51
2024/02/15 00:14:38;;;;;;;0.80;0.50;;;;;;;2.99;100.00;102227.09;105029;1253;61249;-55
2024/02/15 00:17:06;;;;;;;1.20;0.60;;;;;;;2.98;100.00;102234.88;105288;1255;60532;-52
2024/02/15 00:19:34;;;;;;;0.90;0.60;;;;;;;2.97;100.00;102228.13;105232;1260;72662;-53
2024/02/15 00:22:02;;;;;;;0.90;0.60;;;;;;;2.96;100.00;102228.83;105246;1255;65886;-52
2024/02/15 00:24:30;;;;;;;1.40;0.80;;;;;;;2.96;100.00;102223.33;105077;1256;73195;-53
2024/02/15 00:26:58;;;;;;;0.80;0.60;;;;;;;2.96;100.00;102230.25;105295;1257;60518;-53
2024/02/15 00:29:28;;;;;;;0.90;0.70;;;;;;;2.95;100.00;102227.92;105334;1254;60649;-54
2024/02/15 00:31:56;;;;;;;2.30;0.60;;;;;;;2.92;100.00;102230.30;105447;1255;76134;-52
2024/02/15 00:34:26;;;;;;;0.80;0.60;;;;;;;2.91;100.00;102231.00;105104;1260;66814;-55
2024/02/15 00:36:54;;;;;;;1.00;0.70;;;;;;;2.90;100.00;102232.22;105000;1253;71584;-52
2024/02/15 00:39:22;;;;;;;1.20;0.90;;;;;;;2.89;100.00;102232.90;105195;1259;61225;-53
2024/02/15 00:41:49;;;;;;;0.80;0.70;;;;;;;2.87;100.00;102229.16;105007;1260;60777;-53
2024/02/15 00:44:17;;;;;;;0.80;0.70;;;;;;;2.86;100.00;102225.75;105273;1254;74413;-51
2024/02/15 00:46:47;;;;;;;0.90;0.70;;;;;;;2.86;100.00;102228.76;105391;1253;65992;-52
2024/02/15 00:49:15;;;;;;;1.00;0.80;;;;;;;2.86;100.00;102225.05;105237;1254;70957;-53
2024/02/15 00:51:43;;;;;;;0.80;0.60;;;;;;;2.87;100.00;102225.95;104915;1253;60453;-59
2024/02/15 00:54:10;;;;;;;1.00;0.70;;;;;;;2.88;100.00;102226.50;104987;1259;60808;-55
2024/02/15 00:56:38;;;;;;;1.00;0.70;;;;;;;2.89;100.00;102227.59;105219;1257;73802;-53
2024/02/15 00:59:05;;;;;;;2.30;0.70;;;;;;;2.90;100.00;102229.20;105182;1253;67061;-53
2024/02/15 01:01:33;;;;;;;0.80;0.70;;;;;;;2.91;100.00;102231.36;104933;1253;71481;-56
2024/02/15 01:04:00;;;;;;;3.10;0.90;;;;;;;2.92;100.00;102231.92;105192;1253;60469;-55
2024/02/15 01:06:28;;;;;;;1.80;0.80;;;;;;;2.93;100.00;102232.27;105216;1254;61188;-53
2024/02/15 01:08:57;;;;;;;1.20;0.80;;;;;;;2.92;100.00;102237.06;105077;1253;72980;-53
2024/02/15 01:11:25;;;;;;;0.90;0.70;;;;;;;2.91;100.00;102231.53;105280;1257;66754;-60
2024/02/15 01:13:53;;;;;;;1.60;0.90;;;;;;;2.92;100.00;102231.19;105198;1254;71888;-53
2024/02/15 01:16:21;;;;;;;5.10;0.80;;;;;;;2.93;100.00;102233.54;104992;1253;60874;-53
2024/02/15 01:18:48;;;;;;;1.50;0.60;;;;;;;2.93;100.00;102233.89;105178;1260;60960;-56
2024/02/15 01:21:16;;;;;;;1.10;0.80;;;;;;;2.93;100.00;102234.41;105055;1257;73930;-56
2024/02/15 01:23:44;;;;;;;1.50;0.80;;;;;;;2.91;100.00;102227.81;105051;1258;67372;-54
2024/02/15 01:26:14;;;;;;;1.00;0.70;;;;;;;2.93;100.00;102258.89;105129;1256;72223;-52
2024/02/15 01:28:44;;;;;;;1.60;0.80;;;;;;;2.93;100.00;102298.46;105196;1259;60653;-53
2024/02/15 01:31:12;;;;;;;1.30;0.80;;;;;;;2.93;100.00;102331.25;105005;1253;60550;-59
2024/02/15 01:33:39;;;;;;;1.10;0.90;;;;;;;2.89;100.00;102344.45;105149;1255;74388;-54
2024/02/15 01:36:07;;;;;;;0.80;0.70;;;;;;;2.86;100.00;102356.98;105216;1253;66877;-56
2024/02/15 01:38:36;;;;;;;1.60;0.90;;;;;;;2.85;100.00;102364.23;105080;1259;72766;-54
2024/02/15 01:41:05;;;;;;;1.10;0.70;;;;;;;2.86;100.00;102376.85;105317;1261;60561;-53
2024/02/15 01:43:33;;;;;;;1.20;0.90;;;;;;;2.84;100.00;102372.17;105068;1259;60378;-53
2024/02/15 01:46:03;;;;;;;0.70;0.70;;;;;;;2.83;100.00;102371.45;104989;1260;72380;-54
2024/02/15 01:48:31;;;;;;;0.90;0.80;;;;;;;2.84;100.00;102375.18;105107;1253;67293;-54
2024/02/15 01:51:03;;;;;;;1.30;1.10;;;;;;;2.83;100.00;102366.13;105155;1253;72931;-55
2024/02/15 01:53:32;;;;;;;1.10;0.80;;;;;;;2.79;100.00;102352.02;106135;1264;61022;-56
2024/02/15 01:55:59;;;;;;;1.00;0.70;;;;;;;2.78;100.00;102341.53;106356;1254;60536;-56
2024/02/15 01:58:27;;;;;;;4.40;0.70;;;;;;;2.77;100.00;102326.25;106005;1255;73920;-54
2024/02/15 02:00:58;;;;;;;2.10;0.80;;;;;;;2.74;100.00;102318.72;105875;1262;66974;-53
2024/02/15 02:03:25;;;;;;;1.00;0.70;;;;;;;2.74;100.00;102306.83;106376;1255;72983;-56
2024/02/15 02:05:53;;;;;;;3.20;0.70;;;;;;;2.73;100.00;102295.65;106258;1256;62267;-54
2024/02/15 02:08:22;;;;;;;1.00;0.80;;;;;;;2.69;100.00;102287.41;106187;1258;60499;-55
2024/02/15 02:10:50;;;;;;;1.70;0.70;;;;;;;2.66;100.00;102282.02;106123;1255;72701;-56
2024/02/15 02:13:17;;;;;;;0.90;0.70;;;;;;;2.64;100.00;102276.13;106181;1258;67313;-55
2024/02/15 02:15:45;;;;;;;1.80;0.70;;;;;;;2.65;100.00;102270.13;106274;1254;72699;-54
2024/02/15 02:18:13;;;;;;;0.80;0.70;;;;;;;2.65;100.00;102262.84;106063;1256;60503;-55
2024/02/15 02:20:41;;;;;;;1.00;0.90;;;;;;;2.67;100.00;102258.11;106134;1260;61023;-55
2024/02/15 02:23:16;;;;;;;1.50;0.70;;;;;;;2.68;100.00;102254.05;106117;1255;72826;-55
2024/02/15 02:25:44;;;;;;;;;;;;;;;2.66;100.00;102256.30;106184;1254;65502;-56
2024/02/15 02:28:11;;;;;;;0.80;0.80;;;;;;;2.64;100.00;102246.88;106118;1275;75193;-55
2024/02/15 02:30:41;;;;;;;1.00;0.70;;;;;;;2.65;100.00;102243.35;106266;1254;60559;-55
2024/02/15 02:33:18;;;;;;;0.90;0.70;;;;;;;2.69;100.00;102244.50;106416;1254;60473;-56
2024/02/15 02:35:48;;;;;;;1.40;1.20;;;;;;;2.70;100.00;102255.35;106069;1256;73862;-56
2024/02/15 02:38:16;;;;;;;3.70;0.90;;;;;;;2.72;100.00;102248.29;106179;1258;67187;-55
2024/02/15 02:40:43;;;;;;;1.00;0.80;;;;;;;2.73;100.00;102246.73;106669;1251;73005;-55
2024/02/15 02:43:13;;;;;;;0.90;0.80;;;;;;;2.74;100.00;102249.91;106674;1252;60508;-54
2024/02/15 02:45:42;;;;;;;1.30;0.90;;;;;;;2.71;100.00;102244.02;106558;1252;60423;-56
2024/02/15 02:48:10;;;;;;;2.10;0.90;;;;;;;2.70;100.00;102241.70;106421;1251;73944;-59
2024/02/15 02:50:38;;;;;;;1.00;0.90;;;;;;;2.72;100.00;102241.55;106584;1254;67409;-61
2024/02/15 02:53:05;;;;;;;3.20;0.80;;;;;;;2.71;100.00;102244.23;107099;1250;72359;-59
2024/02/15 02:55:32;;;;;;;0.90;0.70;;;;;;;2.69;100.00;102242.92;107401;1251;60663;-59
2024/02/15 02:58:00;;;;;;;1.50;1.00;;;;;;;2.68;100.00;102244.65;106592;1251;61842;-59
2024/02/15 03:00:27;;;;;;;1.90;0.90;;;;;;;2.65;100.00;102244.41;106674;1247;71823;-64
2024/02/15 03:02:56;;;;;;;2.00;1.10;;;;;;;2.62;100.00;102247.73;106931;1250;65848;-61
2024/02/15 03:05:24;;;;;;;1.20;0.80;;;;;;;2.61;100.00;102245.73;106806;1249;72457;-63
2024/02/15 03:07:51;;;;;;;0.80;0.70;;;;;;;2.60;100.00;102245.90;106694;1251;60532;-59
2024/02/15 03:10:19;;;;;;;2.00;1.00;;;;;;;2.61;100.00;102248.41;106665;1246;60391;-60
2024/02/15 03:12:46;;;;;;;1.80;0.80;;;;;;;2.62;100.00;102252.35;106690;1252;73890;-61
2024/02/15 03:15:16;;;;;;;1.80;0.80;;;;;;;2.62;100.00;102258.36;106631;1251;65649;-57
2024/02/15 03:17:45;;;;;;;1.80;1.10;;;;;;;2.60;100.00;102253.87;107091;1247;70850;-61
2024/02/15 03:20:23;;;;;;;1.50;0.90;;;;;;;2.59;100.00;102254.18;106840;1251;60876;-58
2024/02/15 03:22:58;;;;;;;2.40;1.60;;;;;;;2.59;100.00;102265.20;108698;1246;61838;-61
2024/02/15 03:25:28;;;;;;;3.30;1.00;;;;;;;2.62;100.00;102264.56;106599;1251;73908;-58
2024/02/15 03:27:57;;;;;;;2.30;1.10;;;;;;;2.62;100.00;102257.82;106509;1246;67905;-58
2024/02/15 03:30:26;;;;;;;2.60;1.30;;;;;;;2.60;100.00;102257.24;106500;1246;72883;-61
2024/02/15 03:32:53;;;;;;;1.30;1.20;;;;;;;2.60;100.00;102254.23;106850;1252;60967;-62
2024/02/15 03:35:22;;;;;;;1.30;1.10;;;;;;;2.62;100.00;102259.23;106956;1249;61002;-64
2024/02/15 03:37:53;;;;;;;2.00;1.40;;;;;;;2.63;100.00;102260.52;106579;1250;72494;-62
2024/02/15 03:40:22;;;;;;;1.90;1.20;;;;;;;2.64;100.00;102268.67;106647;1252;66904;-59
2024/02/15 03:42:52;;;;;;;3.70;1.40;;;;;;;2.64;100.00;102266.37;106676;1246;72732;-62
2024/02/15 03:45:20;;;;;;;1.40;1.10;;;;;;;2.63;100.00;102274.15;106470;1250;60505;-60
2024/02/15 03:47:49;;;;;;;1.70;1.40;;;;;;;2.62;100.00;102270.05;106522;1250;61312;-62
2024/02/15 03:50:18;;;;;;;5.00;1.40;;;;;;;2.61;100.00;102267.55;108952;1249;72556;-64
2024/02/15 03:52:46;;;;;;;2.50;1.70;;;;;;;2.59;100.00;102269.98;107058;1251;67640;-61
2024/02/15 03:55:14;;;;;;;2.10;1.20;;;;;;;2.61;100.00;102271.43;106615;1252;72733;-63
2024/02/15 03:57:43;;;;;;;1.40;1.10;;;;;;;2.63;100.00;102276.10;106527;1249;60449;-60
2024/02/15 04:00:13;;;;;;;1.40;1.10;;;;;;;2.63;100.00;102280.90;106984;1250;61376;-61
2024/02/15 04:02:41;;;;;;;1.00;0.80;;;;;;;2.61;100.00;102278.91;106692;1251;73395;-60
2024/02/15 04:05:10;;;;;;;2.10;0.90;;;;;;;2.59;100.00;102276.89;109666;1246;66071;-59
2024/02/15 04:07:37;;;;;;;1.30;1.20;;;;;;;2.54;100.00;102276.41;109674;1246;72790;-62
2024/02/15 04:10:06;;;;;;;1.70;1.10;;;;;;;2.52;100.00;102274.07;109461;1246;137116;-61
2024/02/15 04:14:09;;;;;;;2.80;1.40;;;;;;;2.56;100.00;102328.02;102961;1298;601280;-59
2024/02/15 04:16:36;;;;;;;1.20;1.10;;;;;;;2.55;100.00;102442.52;105367;1269;59243;-59
2024/02/15 04:19:05;;;;;;;4.30;1.50;;;;;;;2.55;100.00;102419.31;108338;1263;58578;-60
2024/02/15 04:21:33;;;;;;;11.00;1.20;;;;;;;2.54;100.00;102403.33;108324;1264;72251;-60
2024/02/15 04:24:00;;;;;;;3.60;1.00;;;;;;;2.52;100.00;102395.65;108462;1263;65940;-60
2024/02/15 04:26:29;;;;;;;7.60;1.50;;;;;;;2.50;100.00;102383.90;108305;1266;71668;-61
2024/02/15 04:28:58;;;;;;;2.30;1.10;;;;;;;2.50;100.00;102380.52;108031;1266;170430;-64
2024/02/15 04:31:28;;;;;;;2.50;1.20;;;;;;;2.49;100.00;102375.17;106009;1263;60088;-61
2024/02/15 04:33:56;;;;;;;4.10;1.30;;;;;;;2.50;100.00;102376.08;108966;1254;69970;-58
2024/02/15 04:36:24;;;;;;;1.50;0.90;;;;;;;2.53;100.00;102370.33;108930;1254;66623;-61
2024/02/15 04:38:52;;;;;;;1.90;1.10;;;;;;;2.56;100.00;102368.98;108963;1254;72629;-61
2024/02/15 04:41:22;;;;;;;1.60;1.50;;;;;;;2.58;100.00;102362.83;108298;1257;60900;-62
2024/02/15 04:43:50;;;;;;;2.50;1.50;;;;;;;2.59;100.00;102368.36;108131;1257;61744;-61
2024/02/15 04:46:21;;;;;;;3.90;1.00;;;;;;;2.61;100.00;102365.59;106022;1255;73072;-60
2024/02/15 04:48:51;;;;;;;6.30;1.20;;;;;;;2.61;100.00;102367.71;106004;1260;67530;-59
2024/02/15 04:51:19;;;;;;;1.50;1.10;;;;;;;2.58;100.00;102373.65;106021;1254;72715;-61
2024/02/15 04:53:47;;;;;;;4.20;1.50;;;;;;;2.57;100.00;102369.35;106493;1260;60937;-64
2024/02/15 04:56:16;;;;;;;2.60;1.70;;;;;;;2.57;100.00;102367.23;106243;1256;59576;-64
2024/02/15 04:58:47;;;;;;;1.20;0.90;;;;;;;2.59;100.00;102369.60;106335;1260;71697;-63
2024/02/15 05:01:18;;;;;;;4.00;1.60;;;;;;;2.60;100.00;102371.40;106578;1254;67113;-62
2024/02/15 05:03:45;;;;;;;1.90;1.30;;;;;;;2.60;100.00;102369.80;106074;1257;71469;-62
2024/02/15 05:06:13;;;;;;;1.70;1.60;;;;;;;2.58;100.00;102363.01;106046;1257;60834;-61
2024/02/15 05:08:44;;;;;;;2.60;1.40;;;;;;;2.57;100.00;102362.27;106230;1260;60234;-62
2024/02/15 05:11:22;;;;;;;2.40;1.30;;;;;;;2.57;100.00;102365.63;106424;1254;73599;-61
2024/02/15 05:13:52;;;;;;;3.80;1.20;;;;;;;2.56;100.00;102369.52;106015;1257;66877;-63
2024/02/15 05:16:19;;;;;;;2.90;1.20;;;;;;;2.53;100.00;102362.20;105950;1260;72752;-62
2024/02/15 05:18:47;;;;;;;2.70;2.00;;;;;;;2.51;100.00;102354.15;106075;1260;61346;-63
2024/02/15 05:21:15;;;;;;;2.60;1.50;;;;;;;2.50;100.00;102355.18;106316;1258;59980;-61
2024/02/15 05:23:44;;;;;;;3.20;1.40;;;;;;;2.50;100.00;102357.11;108798;1257;72665;-62
2024/02/15 05:26:12;;;;;;;1.60;1.40;;;;;;;2.49;100.00;102356.57;107476;1260;67514;-62
2024/02/15 05:28:39;;;;;;;2.40;2.20;;;;;;;2.48;100.00;102354.93;106081;1260;71787;-61
2024/02/15 05:31:11;;;;;;;1.70;1.60;;;;;;;2.48;100.00;102353.33;105990;1260;61381;-59
2024/02/15 05:33:43;;;;;;;3.20;2.50;;;;;;;2.50;100.00;102363.35;106005;1256;60517;-61
2024/02/15 05:36:11;;;;;;;2.30;1.90;;;;;;;2.53;100.00;102367.33;105898;1261;75408;-58
2024/02/15 05:38:39;;;;;;;2.30;2.10;;;;;;;2.55;100.00;102366.30;105963;1258;66152;-60
2024/02/15 05:41:07;;;;;;;4.10;2.00;;;;;;;2.55;100.00;102368.08;106407;1257;70474;-59
2024/02/15 05:43:38;;;;;;;6.50;1.80;;;;;;;2.56;100.00;102367.04;105957;1263;59668;-61
2024/02/15 05:46:08;;;;;;;4.10;1.80;;;;;;;2.55;100.00;102372.50;105964;1258;60071;-59
2024/02/15 05:48:36;;;;;;;4.50;2.20;;;;;;;2.52;100.00;102373.84;106049;1259;71890;-58
2024/02/15 05:51:05;;;;;;;5.90;2.00;;;;;;;2.51;100.00;102367.77;106057;1257;66174;-61
2024/02/15 05:53:35;;;;;;;4.70;2.40;;;;;;;2.50;100.00;102367.05;107008;1260;72682;-59
2024/02/15 05:56:04;;;;;;;5.50;3.40;;;;;;;2.49;100.00;102368.98;105976;1258;60549;-62
2024/02/15 05:58:32;;;;;;;3.10;2.70;;;;;;;2.46;100.00;102366.23;106848;1256;60760;-61
2024/02/15 06:01:01;;;;;;;3.30;3.00;;;;;;;2.43;100.00;102362.25;106064;1260;73524;-62
2024/02/15 06:03:29;;;;;;;4.90;2.70;;;;;;;2.43;100.00;102366.52;106046;1257;67169;-64
2024/02/15 06:05:58;;;;;;;3.70;3.40;;;;;;;2.44;100.00;102366.55;105992;1257;73223;-62
2024/02/15 06:08:26;;;;;;;5.00;3.30;;;;;;;2.44;100.00;102373.11;106059;1260;60936;-61
2024/02/15 06:10:53;;;;;;;2.70;2.50;;;;;;;2.45;100.00;102368.16;105954;1256;59742;-63
2024/02/15 06:13:21;;;;;;;4.90;3.60;;;;;;;2.45;100.00;102365.88;105988;1260;73072;-63
2024/02/15 06:15:53;;;;;;;3.40;3.10;;;;;;;2.48;100.00;102373.38;105974;1257;67036;-61
2024/02/15 06:18:27;;;;;;;6.30;3.60;;;;;;;2.52;100.00;102384.83;106027;1260;72471;-60
2024/02/15 06:20:59;;;;;;;6.10;4.50;;;;;;;2.52;100.00;102388.56;106229;1260;61359;-61
2024/02/15 06:23:27;;;;;;;4.30;2.90;;;;;;;2.50;100.00;102389.20;107588;1260;59666;-63
2024/02/15 06:26:00;;;;;;;6.00;3.50;;;;;;;2.47;100.00;102382.22;108556;1257;73048;-60
2024/02/15 06:39:38;;;;;;;7.30;4.30;;;;;;;2.61;100.00;102426.21;106065;1257;75708;-63
2024/02/15 06:42:06;;;;;;;6.20;3.80;;;;;;;2.64;100.00;102412.98;105967;1262;65651;-62
2024/02/15 06:44:35;;;;;;;5.10;3.00;;;;;;;2.65;100.00;102416.38;106269;1257;74902;-62
2024/02/15 06:47:02;;;;;;;5.70;3.50;;;;;;;2.66;100.00;102413.74;106183;1263;59927;-64
2024/02/15 06:49:30;;;;;;;5.10;3.30;;;;;;;2.65;100.00;102412.63;105910;1261;60678;-64
2024/02/15 06:51:58;;;;;;;4.60;3.40;;;;;;;2.65;100.00;102417.97;106228;1260;73498;-60
2024/02/15 06:54:26;;;;;;;5.30;3.10;;;;;;;2.64;100.00;102421.14;105941;1260;65868;-62
2024/02/15 06:56:54;;;;;;;4.60;3.80;;;;;;;2.61;100.00;102416.82;105974;1257;71439;-61
2024/02/15 06:59:22;;;;;;;4.90;4.40;;;;;;;2.60;100.00;102416.78;105872;1257;59992;-58
2024/02/15 07:01:52;;;;;;;6.00;3.70;;;;;;;2.61;100.00;102412.20;106595;1258;61708;-63
2024/02/15 07:04:20;;;;;;;6.10;4.20;;;;;;;2.62;100.00;102416.14;108826;1255;73101;-61
2024/02/15 07:06:49;;;;;;;5.90;4.40;;;;;;;2.63;100.00;102417.59;108830;1257;65542;-62
2024/02/15 07:09:19;;;;;;;6.00;3.70;;;;;;;2.63;100.00;102415.81;108847;1257;74199;-63
2024/02/15 07:11:46;;;;;;;5.60;3.30;;;;;;;2.62;100.00;102416.66;108862;1256;59655;-59
2024/02/15 07:14:18;;;;;;;5.80;3.90;;;;;;;2.60;100.00;102417.49;108855;1254;58799;-61
2024/02/15 07:16:46;;;;;;;5.80;4.10;;;;;;;2.59;100.00;102411.43;108364;1254;73196;-62
2024/02/15 07:19:13;;;;;;;6.50;4.30;;;;;;;2.58;100.00;102413.34;108826;1260;67051;-62
2024/02/15 07:21:42;;;;;;;6.10;4.20;;;;;;;2.58;100.00;102411.92;108952;1257;71450;-58
2024/02/15 07:24:13;;;;;;;5.80;3.60;;;;;;;2.59;100.00;102411.08;108830;1257;61518;-63
2024/02/15 07:26:40;;;;;;;5.40;4.00;;;;;;;2.60;100.00;102419.64;108843;1254;58177;-63
2024/02/15 07:29:08;;;;;;;4.20;3.40;;;;;;;2.60;100.00;102416.24;108816;1254;73079;-62
2024/02/15 07:31:35;;;;;;;7.80;4.60;;;;;;;2.59;100.00;102415.69;108851;1257;65781;-63
2024/02/15 07:34:03;;;;;;;5.40;4.20;;;;;;;2.59;100.00;102419.61;108814;1257;71386;-62
2024/02/15 07:36:32;;;;;;;7.70;5.00;;;;;;;2.60;100.00;102416.44;108841;1254;60819;-62
2024/02/15 07:39:00;;;;;;;5.70;3.80;;;;;;;2.63;100.00;102416.87;108853;1254;60432;-62
2024/02/15 07:41:30;;;;;;;5.20;3.40;;;;;;;2.63;100.00;102428.23;108980;1257;73208;-61
2024/02/15 07:43:58;;;;;;;5.60;3.40;;;;;;;2.62;100.00;102429.45;107597;1258;65883;-59
2024/02/15 07:46:26;;;;;;;5.20;3.70;;;;;;;2.62;100.00;102433.86;106006;1254;72705;-60
2024/02/15 07:48:53;;;;;;;4.10;3.20;;;;;;;2.62;100.00;102437.23;105999;1276;60486;-61
2024/02/15 07:51:21;;;;;;;4.10;2.40;;;;;;;2.64;100.00;102441.00;106060;1254;59806;-59
2024/02/15 07:53:49;;;;;;;4.20;3.20;;;;;;;2.65;100.00;102441.73;105994;1257;73035;-64
2024/02/15 07:56:17;;;;;;;6.10;3.40;;;;;;;2.67;100.00;102440.90;106260;1262;65454;-62
2024/02/15 07:58:47;;;;;;;6.60;4.40;;;;;;;2.69;100.00;102441.48;106110;1263;71238;-59
2024/02/15 08:01:22;;;;;;;5.60;3.90;;;;;;;2.70;100.00;102452.52;106051;1257;59900;-60
2024/02/15 08:03:52;;;;;;;5.60;3.50;;;;;;;2.69;100.00;102447.33;106480;1260;59602;-61
2024/02/15 08:06:24;;;;;;;5.90;4.50;;;;;;;2.67;100.00;102446.04;107251;1260;72228;-60
2024/02/15 08:08:53;;;;;;;3.90;3.30;;;;;;;2.66;100.00;102442.99;106353;1254;66142;-62
2024/02/15 08:11:20;;;;;;;9.00;3.70;;;;;;;2.64;100.00;102444.54;106083;1254;71980;-59
2024/02/15 08:13:53;;;;;;;5.80;3.80;;;;;;;2.63;100.00;102443.81;106052;1260;59651;-62
2024/02/15 08:16:22;;;;;;;9.90;4.30;;;;;;;2.62;100.00;102452.48;106579;1260;60039;-62
2024/02/15 08:18:54;;;;;;;4.70;3.80;;;;;;;2.62;100.00;102448.60;106521;1254;72243;-61
2024/02/15 08:21:27;;;;;;;8.80;4.20;;;;;;;2.66;100.00;102454.16;106060;1260;67162;-62
2024/02/15 08:23:55;;;;;;;9.10;5.70;;;;;;;2.69;100.00;102456.39;106116;1260;72739;-63
2024/02/15 08:26:22;;;;;;;12.50;5.70;;;;;;;2.73;100.00;102455.76;105976;1273;61981;-60
2024/02/15 08:28:50;;;;;;;7.00;4.90;;;;;;;2.73;100.00;102452.75;106020;1255;61371;-61
2024/02/15 08:31:19;;;;;;;7.20;3.90;;;;;;;2.73;100.00;102451.33;106309;1260;72037;-61
2024/02/15 08:33:46;;;;;;;7.70;4.90;;;;;;;2.73;100.00;102454.70;106033;1263;65797;-61
2024/02/15 08:36:14;;;;;;;9.10;4.80;;;;;;;2.73;100.00;102455.23;106098;1260;73602;-61
2024/02/15 08:38:41;;;;;;;7.30;5.00;;;;;;;2.75;100.00;102457.77;106315;1257;60642;-62
2024/02/15 08:41:11;;;;;;;7.20;4.10;;;;;;;2.76;100.00;102463.67;106029;1260;60463;-61
2024/02/15 08:43:41;;;;;;;11.30;4.50;;;;;;;2.77;100.00;102471.13;105944;1260;73932;-63
2024/02/15 08:46:08;;;;;;;12.50;5.40;;;;;;;2.78;100.00;102480.56;106412;1258;65792;-59
2024/02/15 08:48:35;;;;;;;9.10;5.90;;;;;;;2.78;100.00;102480.21;105913;1260;73780;-62
2024/02/15 08:51:05;;;;;;;7.40;4.10;;;;;;;2.79;100.00;102484.32;106114;1261;61419;-62
2024/02/15 08:53:33;;;;;;;7.80;3.20;;;;;;;2.79;100.00;102484.84;106364;1260;60472;-63
2024/02/15 08:56:01;;;;;;;8.80;4.50;;;;;;;2.79;100.00;102482.89;106187;1256;73282;-61
2024/02/15 08:58:29;;;;;;;6.40;3.40;;;;;;;2.78;100.00;102487.13;106026;1260;66637;-60
2024/02/15 09:00:58;;;;;;;5.00;3.60;;;;;;;2.77;100.00;102487.63;106184;1258;71463;-64
2024/02/15 09:03:25;;;;;;;7.50;4.10;;;;;;;2.77;100.00;102494.36;108782;1257;61105;-60
2024/02/15 09:05:54;;;;;;;7.50;5.00;;;;;;;2.78;100.00;102500.43;106782;1257;60537;-64
2024/02/15 09:08:22;;;;;;;6.50;4.00;;;;;;;2.81;100.00;102500.67;106197;1263;74303;-60
2024/02/15 09:10:52;;;;;;;9.40;4.40;;;;;;;2.85;100.00;102510.71;106110;1260;65725;-63
2024/02/15 09:13:20;;;;;;;8.70;5.40;;;;;;;2.88;100.00;102522.70;107770;1260;74686;-63
2024/02/15 09:15:47;;;;;;;10.30;5.70;;;;;;;2.90;100.00;102527.69;106038;1260;60986;-61
2024/02/15 09:18:14;;;;;;;9.70;4.80;;;;;;;2.91;100.00;102525.42;105963;1263;60428;-63
2024/02/15 09:20:44;;;;;;;6.50;4.10;;;;;;;2.93;100.00;102530.09;105980;1263;72437;-59
2024/02/15 09:23:14;;;;;;;8.30;4.20;;;;;;;2.95;100.00;102533.36;107738;1260;65968;-61
2024/02/15 09:25:44;;;;;;;7.60;3.60;;;;;;;2.97;100.00;102539.80;106341;1258;72836;-62
2024/02/15 09:28:13;;;;;;;9.10;4.30;;;;;;;2.96;100.00;102543.15;105867;1263;60470;-63
2024/02/15 09:30:41;;;;;;;9.60;4.70;;;;;;;2.94;100.00;102540.23;106797;1260;61611;-64
2024/02/15 09:33:09;;;;;;;7.10;4.90;;;;;;;2.92;100.00;102536.44;107409;1260;73946;-60
2024/02/15 09:35:37;;;;;;;9.00;5.40;;;;;;;2.91;100.00;102536.41;106536;1260;66915;-65
2024/02/15 09:38:06;;;;;;;5.30;4.20;;;;;;;2.92;100.00;102537.14;106088;1260;71430;-61
2024/02/15 09:40:34;;;;;;;11.50;5.30;;;;;;;2.92;100.00;102538.22;106324;1263;60482;-61
2024/02/15 09:43:02;;;;;;;9.20;4.30;;;;;;;2.91;100.00;102537.13;106305;1260;61657;-64
2024/02/15 09:45:30;;;;;;;8.40;6.40;;;;;;;2.91;100.00;102530.73;106077;1258;72136;-63
2024/02/15 09:47:58;;;;;;;17.70;8.30;;;;;;;2.95;100.00;102529.25;106247;1259;66775;-64
2024/02/15 09:50:25;;;;;;;19.30;10.40;;;;;;;2.97;100.00;102530.57;106017;1263;73117;-64
2024/02/15 09:52:56;;;;;;;18.10;8.20;;;;;;;2.99;100.00;102530.95;105784;1264;61616;-63
2024/02/15 09:55:23;;;;;;;11.30;6.00;;;;;;;3.04;100.00;102536.77;106716;1260;60482;-64
2024/02/15 09:57:51;;;;;;;8.80;5.00;;;;;;;3.10;100.00;102540.83;106027;1263;74318;-63
2024/02/15 10:00:19;;;;;;;6.40;4.70;;;;;;;3.16;100.00;102550.02;107467;1260;65436;-61
2024/02/15 10:02:47;;;;;;;6.00;3.80;;;;;;;3.19;100.00;102558.63;108917;1257;73170;-61
2024/02/15 10:05:17;;;;;;;9.20;3.00;;;;;;;3.19;100.00;102562.55;108805;1257;60953;-61
2024/02/15 10:07:45;;;;;;;4.50;3.00;;;;;;;3.19;100.00;102566.96;108972;1257;58605;-61
2024/02/15 10:10:20;;;;;;;4.80;2.30;;;;;;;3.20;100.00;102572.14;108811;1256;73885;-60
2024/02/15 10:12:55;;;;;;;6.30;3.20;;;;;;;3.21;100.00;102582.45;108814;1256;65306;-64
2024/02/15 10:15:40;;;;;;;8.60;3.70;;;;;;;3.21;100.00;102583.19;107590;1256;72660;-62
2024/02/15 10:18:10;;;;;;;;;;;;;;;3.20;100.00;102587.77;107742;1257;59660;-63
2024/02/15 10:20:44;;;;;;;5.60;3.20;;;;;;;3.20;100.00;102567.70;106304;1261;60541;-62
2024/02/15 10:23:13;;;;;;;;;;;;;;;3.19;100.00;102576.73;106765;1258;73032;-59
2024/02/15 10:25:41;;;;;;;5.60;3.00;;;;;;;3.20;100.00;102569.86;105909;1260;66060;-64
2024/02/15 10:28:10;;;;;;;9.20;5.00;;;;;;;3.22;100.00;102572.21;108865;1257;71320;-64
2024/02/15 10:30:49;;;;;;;7.00;5.20;;;;;;;3.26;100.00;102573.36;107748;1262;60926;-62
2024/02/15 10:33:29;;;;;;;5.20;3.70;;;;;;;3.31;100.00;102594.62;106008;1256;60335;-62
2024/02/15 10:36:13;;;;;;;7.60;4.20;;;;;;;3.33;100.00;102599.27;108933;1257;74285;-64
2024/02/15 10:38:41;;;;;;;7.60;4.10;;;;;;;3.33;100.00;102596.63;108229;1260;69931;-63
2024/02/15 10:41:10;;;;;;;7.30;5.00;;;;;;;3.35;100.00;102585.69;108921;1257;71323;-63
2024/02/15 10:43:38;;;;;;;7.40;3.60;;;;;;;3.37;100.00;102588.76;108872;1257;60930;-63
2024/02/15 10:46:09;;;;;;;7.30;5.10;;;;;;;3.41;100.00;102592.58;108803;1256;60150;-61
2024/02/15 10:48:37;;;;;;;7.50;4.30;;;;;;;3.44;100.00;102593.55;108943;1257;73068;-63
2024/02/15 10:51:09;;;;;;;6.90;5.60;;;;;;;3.46;100.00;102591.29;108107;1257;65428;-63
2024/02/15 10:53:37;;;;;;;9.00;4.40;;;;;;;3.48;100.00;102596.34;106827;1260;73580;-61
2024/02/15 10:56:11;;;;;;;11.60;6.10;;;;;;;3.49;100.00;102599.36;106045;1258;60383;-64
2024/02/15 10:58:46;;;;;;;8.60;5.30;;;;;;;3.51;100.00;102608.98;105946;1261;60112;-62
2024/02/15 11:01:17;;;;;;;9.50;5.30;;;;;;;3.49;100.00;102610.02;106092;1273;72990;-59
2024/02/15 11:03:52;;;;;;;10.90;7.10;;;;;;;3.47;100.00;102602.16;106211;1260;66117;-62
2024/02/15 11:06:21;;;;;;;;;;;;;;;3.46;100.00;102610.84;107325;1261;71451;-61
2024/02/15 11:08:48;;;;;;;26.00;12.40;;;;;;;3.47;100.00;102604.46;106243;1263;61104;-60
2024/02/15 11:11:18;;;;;;;20.90;11.50;;;;;;;3.48;100.00;102612.30;108787;1257;60390;-63
2024/02/15 11:13:49;;;;;;;10.70;6.20;;;;;;;3.50;100.00;102620.13;106233;1260;74316;-63
2024/02/15 11:16:42;;;;;;;10.60;6.00;;;;;;;3.50;100.00;102623.52;106135;1260;69591;-63
2024/02/15 11:19:10;;;;;;;10.10;4.80;;;;;;;3.53;100.00;102653.09;105924;1262;71529;-62
2024/02/15 11:21:56;;;;;;;8.40;4.10;;;;;;;3.54;100.00;102630.75;106330;1263;61257;-60
2024/02/15 11:24:36;;;;;;;6.20;5.00;;;;;;;3.55;100.00;102647.63;106153;1263;60751;-63
2024/02/15 11:27:04;;;;;;;8.30;4.50;;;;;;;3.55;100.00;102643.57;106196;1258;73928;-61
2024/02/15 11:29:55;;;;;;;7.60;4.60;;;;;;;3.53;100.00;102635.86;106919;1258;65779;-62
2024/02/15 11:32:39;;;;;;;9.00;5.60;;;;;;;3.50;100.00;102655.13;106452;1260;72728;-60
2024/02/15 11:35:13;;;;;;;10.10;5.40;;;;;;;3.44;100.00;102648.77;106502;1258;62399;-62
2024/02/15 11:37:49;;;;;;;9.20;7.30;;;;;;;3.40;100.00;102639.27;106111;1269;60507;-61
2024/02/15 11:40:23;;;;;;;7.80;5.30;;;;;;;3.39;100.00;102634.63;106999;1260;73927;-62